sensor_id;sensor_type;location;lat;lon;timestamp;P1;durP1;ratioP1;P2;durP2;ratioP2
43552;SDS011;29153;42.696;23.218;2023-04-29T00:01:42;7.33;;;3.47;;
43552;SDS011;29153;42.696;23.218;2023-04-29T00:04:10;9.35;;;3.70;;
43552;SDS011;29153;42.696;23.218;2023-04-29T00:06:38;7.10;;;3.30;;
43552;SDS011;29153;42.696;23.218;2023-04-29T00:09:06;7.92;;;2.92;;
43552;SDS011;29153;42.696;23.218;2023-04-29T00:11:33;7.75;;;3.45;;
43552;SDS011;29153;42.696;23.218;2023-04-29T00:14:01;7.83;;;2.98;;
43552;SDS011;29153;42.696;23.218;2023-04-29T00:16:28;7.42;;;3.52;;
43552;SDS011;29153;42.696;23.218;2023-04-29T00:18:56;6.83;;;3.10;;
43552;SDS011;29153;42.696;23.218;2023-04-29T00:21:24;5.58;;;3.05;;
43552;SDS011;29153;42.696;23.218;2023-04-29T00:23:53;7.33;;;3.50;;
43552;SDS011;29153;42.696;23.218;2023-04-29T00:26:20;7.30;;;3.30;;
43552;SDS011;29153;42.696;23.218;2023-04-29T00:28:48;7.03;;;3.25;;
43552;SDS011;29153;42.696;23.218;2023-04-29T00:31:15;7.78;;;3.20;;
43552;SDS011;29153;42.696;23.218;2023-04-29T00:33:43;6.17;;;3.30;;
43552;SDS011;29153;42.696;23.218;2023-04-29T00:36:11;6.55;;;3.58;;
43552;SDS011;29153;42.696;23.218;2023-04-29T00:38:38;8.05;;;3.55;;
43552;SDS011;29153;42.696;23.218;2023-04-29T00:41:06;9.10;;;3.20;;
43552;SDS011;29153;42.696;23.218;2023-04-29T00:43:33;8.55;;;3.52;;
43552;SDS011;29153;42.696;23.218;2023-04-29T00:46:01;6.45;;;3.12;;
43552;SDS011;29153;42.696;23.218;2023-04-29T00:48:28;7.12;;;3.80;;
43552;SDS011;29153;42.696;23.218;2023-04-29T00:50:57;6.97;;;3.30;;
43552;SDS011;29153;42.696;23.218;2023-04-29T00:53:25;8.18;;;3.95;;
43552;SDS011;29153;42.696;23.218;2023-04-29T00:55:52;8.70;;;3.72;;
43552;SDS011;29153;42.696;23.218;2023-04-29T00:58:21;7.97;;;3.50;;
43552;SDS011;29153;42.696;23.218;2023-04-29T01:00:51;7.80;;;3.33;;
43552;SDS011;29153;42.696;23.218;2023-04-29T01:03:20;7.05;;;3.40;;
43552;SDS011;29153;42.696;23.218;2023-04-29T01:05:49;6.40;;;3.90;;
43552;SDS011;29153;42.696;23.218;2023-04-29T01:11:10;13.98;;;3.40;;
43552;SDS011;29153;42.696;23.218;2023-04-29T01:13:45;9.23;;;3.87;;
43552;SDS011;29153;42.696;23.218;2023-04-29T01:16:20;6.00;;;3.40;;
43552;SDS011;29153;42.696;23.218;2023-04-29T01:18:53;6.15;;;3.15;;
43552;SDS011;29153;42.696;23.218;2023-04-29T01:21:23;6.30;;;3.80;;
43552;SDS011;29153;42.696;23.218;2023-04-29T01:23:51;6.85;;;3.55;;
43552;SDS011;29153;42.696;23.218;2023-04-29T01:26:21;6.40;;;3.50;;
43552;SDS011;29153;42.696;23.218;2023-04-29T01:29:08;7.35;;;4.20;;
43552;SDS011;29153;42.696;23.218;2023-04-29T01:31:55;7.55;;;4.05;;
43552;SDS011;29153;42.696;23.218;2023-04-29T01:34:33;8.03;;;3.95;;
43552;SDS011;29153;42.696;23.218;2023-04-29T01:42:43;8.13;;;3.75;;
43552;SDS011;29153;42.696;23.218;2023-04-29T01:45:16;8.35;;;4.00;;
43552;SDS011;29153;42.696;23.218;2023-04-29T01:47:46;7.30;;;3.85;;
43552;SDS011;29153;42.696;23.218;2023-04-29T01:50:14;7.20;;;3.83;;
43552;SDS011;29153;42.696;23.218;2023-04-29T01:52:41;6.45;;;3.70;;
43552;SDS011;29153;42.696;23.218;2023-04-29T01:55:09;9.15;;;3.83;;
43552;SDS011;29153;42.696;23.218;2023-04-29T01:57:37;7.83;;;3.75;;
43552;SDS011;29153;42.696;23.218;2023-04-29T02:00:04;7.08;;;3.90;;
43552;SDS011;29153;42.696;23.218;2023-04-29T02:02:33;8.20;;;3.83;;
43552;SDS011;29153;42.696;23.218;2023-04-29T02:05:01;6.58;;;3.87;;
43552;SDS011;29153;42.696;23.218;2023-04-29T02:07:28;9.13;;;4.58;;
43552;SDS011;29153;42.696;23.218;2023-04-29T02:09:56;8.00;;;3.58;;
43552;SDS011;29153;42.696;23.218;2023-04-29T02:12:23;8.00;;;4.97;;
43552;SDS011;29153;42.696;23.218;2023-04-29T02:14:51;8.63;;;3.90;;
43552;SDS011;29153;42.696;23.218;2023-04-29T02:17:19;9.00;;;4.15;;
43552;SDS011;29153;42.696;23.218;2023-04-29T02:19:46;7.10;;;3.95;;
43552;SDS011;29153;42.696;23.218;2023-04-29T02:22:14;9.83;;;4.10;;
43552;SDS011;29153;42.696;23.218;2023-04-29T02:24:41;7.78;;;4.37;;
43552;SDS011;29153;42.696;23.218;2023-04-29T02:27:09;7.35;;;3.98;;
43552;SDS011;29153;42.696;23.218;2023-04-29T02:29:36;8.95;;;4.28;;
43552;SDS011;29153;42.696;23.218;2023-04-29T02:32:04;8.15;;;4.10;;
43552;SDS011;29153;42.696;23.218;2023-04-29T02:34:31;10.90;;;4.35;;
43552;SDS011;29153;42.696;23.218;2023-04-29T02:36:59;8.48;;;4.15;;
43552;SDS011;29153;42.696;23.218;2023-04-29T02:39:26;8.28;;;4.28;;
43552;SDS011;29153;42.696;23.218;2023-04-29T02:41:54;8.48;;;4.00;;
43552;SDS011;29153;42.696;23.218;2023-04-29T02:44:21;8.78;;;3.90;;
43552;SDS011;29153;42.696;23.218;2023-04-29T02:46:49;10.20;;;4.70;;
43552;SDS011;29153;42.696;23.218;2023-04-29T02:49:16;7.37;;;4.22;;
43552;SDS011;29153;42.696;23.218;2023-04-29T02:51:44;9.20;;;3.80;;
43552;SDS011;29153;42.696;23.218;2023-04-29T02:54:13;7.30;;;4.05;;
43552;SDS011;29153;42.696;23.218;2023-04-29T02:56:41;7.90;;;4.12;;
43552;SDS011;29153;42.696;23.218;2023-04-29T02:59:09;7.72;;;4.03;;
43552;SDS011;29153;42.696;23.218;2023-04-29T03:01:36;10.40;;;4.08;;
43552;SDS011;29153;42.696;23.218;2023-04-29T03:04:04;9.08;;;3.98;;
43552;SDS011;29153;42.696;23.218;2023-04-29T03:06:32;8.15;;;3.70;;
43552;SDS011;29153;42.696;23.218;2023-04-29T03:08:59;9.78;;;3.80;;
43552;SDS011;29153;42.696;23.218;2023-04-29T03:11:27;7.47;;;3.62;;
43552;SDS011;29153;42.696;23.218;2023-04-29T03:13:55;9.73;;;3.67;;
43552;SDS011;29153;42.696;23.218;2023-04-29T03:16:22;6.85;;;4.50;;
43552;SDS011;29153;42.696;23.218;2023-04-29T03:18:50;10.43;;;3.85;;
43552;SDS011;29153;42.696;23.218;2023-04-29T03:21:17;10.93;;;4.87;;
43552;SDS011;29153;42.696;23.218;2023-04-29T03:23:45;13.75;;;5.30;;
43552;SDS011;29153;42.696;23.218;2023-04-29T03:26:12;13.55;;;4.97;;
43552;SDS011;29153;42.696;23.218;2023-04-29T03:28:40;11.38;;;5.20;;
43552;SDS011;29153;42.696;23.218;2023-04-29T03:31:07;11.05;;;4.62;;
43552;SDS011;29153;42.696;23.218;2023-04-29T03:36:03;9.95;;;4.97;;
43552;SDS011;29153;42.696;23.218;2023-04-29T03:38:31;11.88;;;4.92;;
43552;SDS011;29153;42.696;23.218;2023-04-29T03:40:58;10.10;;;5.12;;
43552;SDS011;29153;42.696;23.218;2023-04-29T03:43:26;9.33;;;5.78;;
43552;SDS011;29153;42.696;23.218;2023-04-29T03:45:53;13.25;;;5.05;;
43552;SDS011;29153;42.696;23.218;2023-04-29T03:48:21;8.53;;;4.75;;
43552;SDS011;29153;42.696;23.218;2023-04-29T03:50:48;8.55;;;4.80;;
43552;SDS011;29153;42.696;23.218;2023-04-29T03:53:16;8.33;;;4.72;;
43552;SDS011;29153;42.696;23.218;2023-04-29T03:55:43;9.25;;;4.90;;
43552;SDS011;29153;42.696;23.218;2023-04-29T03:58:11;9.48;;;4.65;;
43552;SDS011;29153;42.696;23.218;2023-04-29T04:00:39;8.80;;;4.60;;
43552;SDS011;29153;42.696;23.218;2023-04-29T04:03:06;13.60;;;4.70;;
43552;SDS011;29153;42.696;23.218;2023-04-29T04:05:33;8.80;;;5.30;;
43552;SDS011;29153;42.696;23.218;2023-04-29T04:08:01;8.45;;;4.58;;
43552;SDS011;29153;42.696;23.218;2023-04-29T04:10:28;10.63;;;4.65;;
43552;SDS011;29153;42.696;23.218;2023-04-29T04:12:56;9.53;;;4.87;;
43552;SDS011;29153;42.696;23.218;2023-04-29T04:15:23;8.65;;;4.75;;
43552;SDS011;29153;42.696;23.218;2023-04-29T04:17:51;8.23;;;5.05;;
43552;SDS011;29153;42.696;23.218;2023-04-29T04:20:18;12.00;;;4.80;;
43552;SDS011;29153;42.696;23.218;2023-04-29T04:22:46;11.60;;;5.17;;
43552;SDS011;29153;42.696;23.218;2023-04-29T04:25:13;10.35;;;5.58;;
43552;SDS011;29153;42.696;23.218;2023-04-29T04:27:41;10.38;;;4.75;;
43552;SDS011;29153;42.696;23.218;2023-04-29T04:30:08;9.85;;;5.00;;
43552;SDS011;29153;42.696;23.218;2023-04-29T04:32:36;7.78;;;4.45;;
43552;SDS011;29153;42.696;23.218;2023-04-29T04:35:04;9.13;;;4.85;;
43552;SDS011;29153;42.696;23.218;2023-04-29T04:37:32;7.62;;;4.05;;
43552;SDS011;29153;42.696;23.218;2023-04-29T04:40:00;9.28;;;4.40;;
43552;SDS011;29153;42.696;23.218;2023-04-29T04:45:49;10.90;;;4.42;;
43552;SDS011;29153;42.696;23.218;2023-04-29T04:48:17;10.90;;;5.97;;
43552;SDS011;29153;42.696;23.218;2023-04-29T04:50:45;8.20;;;4.20;;
43552;SDS011;29153;42.696;23.218;2023-04-29T04:53:12;11.25;;;7.30;;
43552;SDS011;29153;42.696;23.218;2023-04-29T04:55:39;13.40;;;7.75;;
43552;SDS011;29153;42.696;23.218;2023-04-29T04:58:07;8.98;;;5.28;;
43552;SDS011;29153;42.696;23.218;2023-04-29T05:00:34;10.78;;;5.42;;
43552;SDS011;29153;42.696;23.218;2023-04-29T05:03:02;11.65;;;5.37;;
43552;SDS011;29153;42.696;23.218;2023-04-29T05:05:31;17.80;;;5.85;;
43552;SDS011;29153;42.696;23.218;2023-04-29T05:07:59;12.58;;;6.58;;
43552;SDS011;29153;42.696;23.218;2023-04-29T05:10:26;13.32;;;7.70;;
43552;SDS011;29153;42.696;23.218;2023-04-29T05:12:54;12.70;;;6.70;;
43552;SDS011;29153;42.696;23.218;2023-04-29T05:15:21;18.62;;;9.20;;
43552;SDS011;29153;42.696;23.218;2023-04-29T05:17:50;23.30;;;10.58;;
43552;SDS011;29153;42.696;23.218;2023-04-29T05:20:18;18.70;;;11.25;;
43552;SDS011;29153;42.696;23.218;2023-04-29T05:22:45;19.52;;;10.90;;
43552;SDS011;29153;42.696;23.218;2023-04-29T05:25:13;19.15;;;10.40;;
43552;SDS011;29153;42.696;23.218;2023-04-29T05:27:40;14.38;;;7.33;;
43552;SDS011;29153;42.696;23.218;2023-04-29T05:30:08;16.75;;;7.42;;
43552;SDS011;29153;42.696;23.218;2023-04-29T05:32:36;14.33;;;6.40;;
43552;SDS011;29153;42.696;23.218;2023-04-29T05:35:03;11.95;;;7.72;;
43552;SDS011;29153;42.696;23.218;2023-04-29T05:37:31;16.40;;;7.05;;
43552;SDS011;29153;42.696;23.218;2023-04-29T05:39:58;13.68;;;7.30;;
43552;SDS011;29153;42.696;23.218;2023-04-29T05:42:26;14.70;;;8.30;;
43552;SDS011;29153;42.696;23.218;2023-04-29T05:44:53;14.35;;;8.73;;
43552;SDS011;29153;42.696;23.218;2023-04-29T05:47:21;11.73;;;6.90;;
43552;SDS011;29153;42.696;23.218;2023-04-29T05:49:48;12.85;;;6.28;;
43552;SDS011;29153;42.696;23.218;2023-04-29T05:52:16;14.85;;;7.25;;
43552;SDS011;29153;42.696;23.218;2023-04-29T05:54:43;13.50;;;7.03;;
43552;SDS011;29153;42.696;23.218;2023-04-29T05:57:11;12.30;;;7.33;;
43552;SDS011;29153;42.696;23.218;2023-04-29T05:59:38;12.18;;;5.90;;
43552;SDS011;29153;42.696;23.218;2023-04-29T06:02:06;14.00;;;6.70;;
43552;SDS011;29153;42.696;23.218;2023-04-29T06:04:35;15.70;;;6.37;;
43552;SDS011;29153;42.696;23.218;2023-04-29T06:07:02;16.85;;;6.75;;
43552;SDS011;29153;42.696;23.218;2023-04-29T06:09:30;12.28;;;6.50;;
43552;SDS011;29153;42.696;23.218;2023-04-29T06:11:57;17.98;;;5.65;;
43552;SDS011;29153;42.696;23.218;2023-04-29T06:14:25;10.60;;;5.62;;
43552;SDS011;29153;42.696;23.218;2023-04-29T06:16:52;10.40;;;6.58;;
43552;SDS011;29153;42.696;23.218;2023-04-29T06:19:20;12.50;;;5.42;;
43552;SDS011;29153;42.696;23.218;2023-04-29T06:21:49;14.55;;;5.45;;
43552;SDS011;29153;42.696;23.218;2023-04-29T06:24:17;13.30;;;6.70;;
43552;SDS011;29153;42.696;23.218;2023-04-29T06:26:44;10.15;;;5.28;;
43552;SDS011;29153;42.696;23.218;2023-04-29T06:29:13;11.95;;;5.80;;
43552;SDS011;29153;42.696;23.218;2023-04-29T06:31:40;12.30;;;6.25;;
43552;SDS011;29153;42.696;23.218;2023-04-29T06:34:08;12.70;;;5.05;;
43552;SDS011;29153;42.696;23.218;2023-04-29T06:36:35;9.18;;;4.58;;
43552;SDS011;29153;42.696;23.218;2023-04-29T06:39:03;12.65;;;5.87;;
43552;SDS011;29153;42.696;23.218;2023-04-29T06:41:30;12.05;;;5.20;;
43552;SDS011;29153;42.696;23.218;2023-04-29T06:46:26;12.00;;;5.95;;
43552;SDS011;29153;42.696;23.218;2023-04-29T06:48:54;9.25;;;5.60;;
43552;SDS011;29153;42.696;23.218;2023-04-29T06:51:21;10.03;;;5.28;;
43552;SDS011;29153;42.696;23.218;2023-04-29T06:53:49;9.75;;;5.17;;
43552;SDS011;29153;42.696;23.218;2023-04-29T06:56:17;9.45;;;5.58;;
43552;SDS011;29153;42.696;23.218;2023-04-29T06:58:44;11.57;;;6.65;;
43552;SDS011;29153;42.696;23.218;2023-04-29T07:01:12;14.58;;;6.92;;
43552;SDS011;29153;42.696;23.218;2023-04-29T07:03:39;11.30;;;6.25;;
43552;SDS011;29153;42.696;23.218;2023-04-29T07:06:08;14.05;;;6.12;;
43552;SDS011;29153;42.696;23.218;2023-04-29T07:08:35;10.32;;;6.37;;
43552;SDS011;29153;42.696;23.218;2023-04-29T07:11:03;12.20;;;6.17;;
43552;SDS011;29153;42.696;23.218;2023-04-29T07:13:30;12.18;;;6.28;;
43552;SDS011;29153;42.696;23.218;2023-04-29T07:15:58;11.85;;;7.20;;
43552;SDS011;29153;42.696;23.218;2023-04-29T07:18:25;15.25;;;7.37;;
43552;SDS011;29153;42.696;23.218;2023-04-29T07:20:53;11.28;;;7.22;;
43552;SDS011;29153;42.696;23.218;2023-04-29T07:23:20;9.60;;;5.87;;
43552;SDS011;29153;42.696;23.218;2023-04-29T07:25:48;14.15;;;7.33;;
43552;SDS011;29153;42.696;23.218;2023-04-29T07:28:16;10.98;;;6.45;;
43552;SDS011;29153;42.696;23.218;2023-04-29T07:30:44;19.17;;;6.00;;
43552;SDS011;29153;42.696;23.218;2023-04-29T07:33:11;13.35;;;6.35;;
43552;SDS011;29153;42.696;23.218;2023-04-29T07:35:39;13.72;;;7.08;;
43552;SDS011;29153;42.696;23.218;2023-04-29T07:38:07;11.65;;;6.47;;
43552;SDS011;29153;42.696;23.218;2023-04-29T07:40:35;9.90;;;6.25;;
43552;SDS011;29153;42.696;23.218;2023-04-29T07:43:03;12.88;;;6.62;;
43552;SDS011;29153;42.696;23.218;2023-04-29T07:45:31;8.65;;;5.40;;
43552;SDS011;29153;42.696;23.218;2023-04-29T07:47:58;11.28;;;5.70;;
43552;SDS011;29153;42.696;23.218;2023-04-29T07:50:26;10.23;;;6.00;;
43552;SDS011;29153;42.696;23.218;2023-04-29T07:52:53;9.78;;;5.95;;
43552;SDS011;29153;42.696;23.218;2023-04-29T07:55:22;14.13;;;6.42;;
43552;SDS011;29153;42.696;23.218;2023-04-29T07:57:51;10.15;;;5.58;;
43552;SDS011;29153;42.696;23.218;2023-04-29T08:00:19;10.32;;;6.25;;
43552;SDS011;29153;42.696;23.218;2023-04-29T08:02:50;12.68;;;6.35;;
43552;SDS011;29153;42.696;23.218;2023-04-29T08:05:19;12.30;;;6.15;;
43552;SDS011;29153;42.696;23.218;2023-04-29T08:07:47;34.73;;;10.80;;
43552;SDS011;29153;42.696;23.218;2023-04-29T08:12:45;9.95;;;6.15;;
43552;SDS011;29153;42.696;23.218;2023-04-29T08:15:14;10.88;;;5.75;;
43552;SDS011;29153;42.696;23.218;2023-04-29T08:17:43;10.35;;;6.28;;
43552;SDS011;29153;42.696;23.218;2023-04-29T08:20:10;9.43;;;5.45;;
43552;SDS011;29153;42.696;23.218;2023-04-29T08:22:39;11.30;;;5.95;;
43552;SDS011;29153;42.696;23.218;2023-04-29T08:25:07;12.55;;;5.58;;
43552;SDS011;29153;42.696;23.218;2023-04-29T08:27:35;9.75;;;6.37;;
43552;SDS011;29153;42.696;23.218;2023-04-29T08:30:02;9.78;;;5.90;;
43552;SDS011;29153;42.696;23.218;2023-04-29T08:32:30;11.65;;;6.17;;
43552;SDS011;29153;42.696;23.218;2023-04-29T08:34:59;9.43;;;5.97;;
43552;SDS011;29153;42.696;23.218;2023-04-29T08:37:27;10.85;;;6.37;;
43552;SDS011;29153;42.696;23.218;2023-04-29T08:39:55;22.77;;;5.92;;
43552;SDS011;29153;42.696;23.218;2023-04-29T08:42:31;11.95;;;7.22;;
43552;SDS011;29153;42.696;23.218;2023-04-29T08:44:56;17.73;;;6.62;;
43552;SDS011;29153;42.696;23.218;2023-04-29T08:47:26;12.03;;;6.50;;
43552;SDS011;29153;42.696;23.218;2023-04-29T08:50:02;11.45;;;5.67;;
43552;SDS011;29153;42.696;23.218;2023-04-29T08:52:31;12.55;;;7.70;;
43552;SDS011;29153;42.696;23.218;2023-04-29T08:55:00;15.00;;;7.05;;
43552;SDS011;29153;42.696;23.218;2023-04-29T08:57:30;12.30;;;5.95;;
43552;SDS011;29153;42.696;23.218;2023-04-29T09:00:02;12.13;;;7.22;;
43552;SDS011;29153;42.696;23.218;2023-04-29T09:02:30;12.13;;;5.45;;
43552;SDS011;29153;42.696;23.218;2023-04-29T09:05:06;10.93;;;6.42;;
43552;SDS011;29153;42.696;23.218;2023-04-29T09:07:37;10.13;;;5.78;;
43552;SDS011;29153;42.696;23.218;2023-04-29T09:10:05;12.58;;;6.87;;
43552;SDS011;29153;42.696;23.218;2023-04-29T09:12:33;10.28;;;5.53;;
43552;SDS011;29153;42.696;23.218;2023-04-29T09:15:01;15.40;;;5.30;;
43552;SDS011;29153;42.696;23.218;2023-04-29T09:22:51;14.68;;;5.45;;
43552;SDS011;29153;42.696;23.218;2023-04-29T09:25:26;10.95;;;5.72;;
43552;SDS011;29153;42.696;23.218;2023-04-29T09:27:54;10.58;;;6.42;;
43552;SDS011;29153;42.696;23.218;2023-04-29T09:30:22;10.48;;;5.97;;
43552;SDS011;29153;42.696;23.218;2023-04-29T09:33:04;9.60;;;5.50;;
43552;SDS011;29153;42.696;23.218;2023-04-29T09:35:32;13.10;;;5.17;;
43552;SDS011;29153;42.696;23.218;2023-04-29T09:38:19;28.38;;;5.42;;
43552;SDS011;29153;42.696;23.218;2023-04-29T09:40:36;13.65;;;5.28;;
43552;SDS011;29153;42.696;23.218;2023-04-29T09:43:10;11.12;;;5.70;;
43552;SDS011;29153;42.696;23.218;2023-04-29T09:45:39;13.65;;;5.70;;
43552;SDS011;29153;42.696;23.218;2023-04-29T09:48:09;8.40;;;4.90;;
43552;SDS011;29153;42.696;23.218;2023-04-29T09:50:39;9.75;;;5.00;;
43552;SDS011;29153;42.696;23.218;2023-04-29T09:53:09;9.10;;;4.33;;
43552;SDS011;29153;42.696;23.218;2023-04-29T09:58:35;11.10;;;4.05;;
43552;SDS011;29153;42.696;23.218;2023-04-29T10:01:04;7.45;;;4.35;;
43552;SDS011;29153;42.696;23.218;2023-04-29T10:06:00;10.82;;;3.95;;
43552;SDS011;29153;42.696;23.218;2023-04-29T10:08:29;9.08;;;4.85;;
43552;SDS011;29153;42.696;23.218;2023-04-29T10:10:58;8.28;;;5.00;;
43552;SDS011;29153;42.696;23.218;2023-04-29T10:13:28;13.98;;;8.75;;
43552;SDS011;29153;42.696;23.218;2023-04-29T10:16:14;10.25;;;4.00;;
43552;SDS011;29153;42.696;23.218;2023-04-29T10:18:59;9.85;;;3.72;;
43552;SDS011;29153;42.696;23.218;2023-04-29T10:21:28;6.97;;;3.80;;
43552;SDS011;29153;42.696;23.218;2023-04-29T10:23:57;9.55;;;3.27;;
43552;SDS011;29153;42.696;23.218;2023-04-29T10:26:26;5.70;;;3.30;;
43552;SDS011;29153;42.696;23.218;2023-04-29T10:28:54;6.78;;;3.15;;
43552;SDS011;29153;42.696;23.218;2023-04-29T10:31:25;10.75;;;4.58;;
43552;SDS011;29153;42.696;23.218;2023-04-29T10:33:56;8.28;;;4.30;;
43552;SDS011;29153;42.696;23.218;2023-04-29T10:36:26;7.35;;;3.60;;
43552;SDS011;29153;42.696;23.218;2023-04-29T10:38:59;6.10;;;3.08;;
43552;SDS011;29153;42.696;23.218;2023-04-29T10:41:34;6.92;;;2.58;;
43552;SDS011;29153;42.696;23.218;2023-04-29T10:44:06;5.65;;;2.50;;
43552;SDS011;29153;42.696;23.218;2023-04-29T10:49:02;3.52;;;1.30;;
43552;SDS011;29153;42.696;23.218;2023-04-29T10:51:32;6.05;;;2.37;;
43552;SDS011;29153;42.696;23.218;2023-04-29T10:54:16;5.80;;;1.70;;
43552;SDS011;29153;42.696;23.218;2023-04-29T10:56:47;5.53;;;2.10;;
43552;SDS011;29153;42.696;23.218;2023-04-29T10:59:19;8.58;;;2.27;;
43552;SDS011;29153;42.696;23.218;2023-04-29T11:01:49;4.17;;;1.77;;
43552;SDS011;29153;42.696;23.218;2023-04-29T11:04:19;5.12;;;1.52;;
43552;SDS011;29153;42.696;23.218;2023-04-29T11:06:51;4.90;;;2.05;;
43552;SDS011;29153;42.696;23.218;2023-04-29T11:09:23;4.17;;;1.60;;
43552;SDS011;29153;42.696;23.218;2023-04-29T11:14:28;6.22;;;1.75;;
43552;SDS011;29153;42.696;23.218;2023-04-29T11:17:01;4.78;;;1.20;;
43552;SDS011;29153;42.696;23.218;2023-04-29T11:19:39;7.03;;;1.40;;
43552;SDS011;29153;42.696;23.218;2023-04-29T11:24:50;4.47;;;1.50;;
43552;SDS011;29153;42.696;23.218;2023-04-29T11:27:25;39.40;;;3.08;;
43552;SDS011;29153;42.696;23.218;2023-04-29T11:29:55;4.22;;;2.08;;
43552;SDS011;29153;42.696;23.218;2023-04-29T11:32:24;3.05;;;1.40;;
43552;SDS011;29153;42.696;23.218;2023-04-29T11:34:53;35.00;;;2.70;;
43552;SDS011;29153;42.696;23.218;2023-04-29T11:37:24;34.27;;;3.50;;
43552;SDS011;29153;42.696;23.218;2023-04-29T11:39:58;4.03;;;1.87;;
43552;SDS011;29153;42.696;23.218;2023-04-29T11:42:22;3.70;;;1.20;;
43552;SDS011;29153;42.696;23.218;2023-04-29T11:44:50;21.73;;;2.40;;
43552;SDS011;29153;42.696;23.218;2023-04-29T11:47:18;5.72;;;2.12;;
43552;SDS011;29153;42.696;23.218;2023-04-29T11:49:46;3.62;;;1.40;;
43552;SDS011;29153;42.696;23.218;2023-04-29T11:52:14;3.85;;;1.40;;
43552;SDS011;29153;42.696;23.218;2023-04-29T11:54:42;6.95;;;1.05;;
43552;SDS011;29153;42.696;23.218;2023-04-29T11:57:09;2.45;;;0.50;;
43552;SDS011;29153;42.696;23.218;2023-04-29T11:59:37;2.75;;;0.88;;
43552;SDS011;29153;42.696;23.218;2023-04-29T12:02:07;7.28;;;0.98;;
43552;SDS011;29153;42.696;23.218;2023-04-29T12:04:49;4.05;;;1.17;;
43552;SDS011;29153;42.696;23.218;2023-04-29T12:07:15;9.30;;;1.60;;
43552;SDS011;29153;42.696;23.218;2023-04-29T12:09:43;5.62;;;1.50;;
43552;SDS011;29153;42.696;23.218;2023-04-29T12:12:12;7.25;;;1.67;;
43552;SDS011;29153;42.696;23.218;2023-04-29T12:14:40;2.77;;;1.30;;
43552;SDS011;29153;42.696;23.218;2023-04-29T12:17:09;5.00;;;1.12;;
43552;SDS011;29153;42.696;23.218;2023-04-29T12:19:38;4.60;;;1.10;;
43552;SDS011;29153;42.696;23.218;2023-04-29T12:22:07;3.83;;;0.80;;
43552;SDS011;29153;42.696;23.218;2023-04-29T12:24:35;4.90;;;1.20;;
43552;SDS011;29153;42.696;23.218;2023-04-29T12:27:08;3.95;;;1.40;;
43552;SDS011;29153;42.696;23.218;2023-04-29T12:29:37;2.30;;;1.00;;
43552;SDS011;29153;42.696;23.218;2023-04-29T12:32:11;4.25;;;1.02;;
43552;SDS011;29153;42.696;23.218;2023-04-29T12:34:38;5.17;;;1.10;;
43552;SDS011;29153;42.696;23.218;2023-04-29T12:37:05;3.15;;;0.90;;
43552;SDS011;29153;42.696;23.218;2023-04-29T12:39:33;5.33;;;1.10;;
43552;SDS011;29153;42.696;23.218;2023-04-29T12:42:01;4.47;;;0.70;;
43552;SDS011;29153;42.696;23.218;2023-04-29T12:44:35;5.10;;;1.15;;
43552;SDS011;29153;42.696;23.218;2023-04-29T12:47:09;5.72;;;1.40;;
43552;SDS011;29153;42.696;23.218;2023-04-29T12:49:41;4.25;;;1.10;;
43552;SDS011;29153;42.696;23.218;2023-04-29T12:52:10;6.45;;;1.57;;
43552;SDS011;29153;42.696;23.218;2023-04-29T12:57:08;2.45;;;0.60;;
43552;SDS011;29153;42.696;23.218;2023-04-29T12:59:36;4.35;;;1.32;;
43552;SDS011;29153;42.696;23.218;2023-04-29T13:02:05;2.92;;;1.10;;
43552;SDS011;29153;42.696;23.218;2023-04-29T13:04:33;6.25;;;1.20;;
43552;SDS011;29153;42.696;23.218;2023-04-29T13:07:01;2.17;;;1.22;;
43552;SDS011;29153;42.696;23.218;2023-04-29T13:09:30;3.52;;;0.60;;
43552;SDS011;29153;42.696;23.218;2023-04-29T13:11:58;3.08;;;1.02;;
43552;SDS011;29153;42.696;23.218;2023-04-29T13:14:26;2.35;;;1.00;;
43552;SDS011;29153;42.696;23.218;2023-04-29T13:16:53;5.55;;;1.40;;
43552;SDS011;29153;42.696;23.218;2023-04-29T13:19:21;6.67;;;1.45;;
43552;SDS011;29153;42.696;23.218;2023-04-29T13:21:48;3.37;;;1.17;;
43552;SDS011;29153;42.696;23.218;2023-04-29T13:26:44;3.85;;;1.05;;
43552;SDS011;29153;42.696;23.218;2023-04-29T13:29:12;3.47;;;0.88;;
43552;SDS011;29153;42.696;23.218;2023-04-29T13:31:40;3.55;;;1.10;;
43552;SDS011;29153;42.696;23.218;2023-04-29T13:34:08;15.45;;;4.78;;
43552;SDS011;29153;42.696;23.218;2023-04-29T13:36:36;6.30;;;2.15;;
43552;SDS011;29153;42.696;23.218;2023-04-29T13:39:03;4.00;;;0.70;;
43552;SDS011;29153;42.696;23.218;2023-04-29T13:41:30;2.83;;;0.78;;
43552;SDS011;29153;42.696;23.218;2023-04-29T13:43:59;4.53;;;0.93;;
43552;SDS011;29153;42.696;23.218;2023-04-29T13:46:26;2.05;;;0.90;;
43552;SDS011;29153;42.696;23.218;2023-04-29T13:48:54;2.75;;;1.10;;
43552;SDS011;29153;42.696;23.218;2023-04-29T13:51:21;3.12;;;1.07;;
43552;SDS011;29153;42.696;23.218;2023-04-29T13:53:49;3.70;;;1.15;;
43552;SDS011;29153;42.696;23.218;2023-04-29T13:56:16;2.62;;;1.30;;
43552;SDS011;29153;42.696;23.218;2023-04-29T13:58:44;3.92;;;0.80;;
43552;SDS011;29153;42.696;23.218;2023-04-29T14:01:11;3.80;;;1.30;;
43552;SDS011;29153;42.696;23.218;2023-04-29T14:03:39;5.55;;;1.55;;
43552;SDS011;29153;42.696;23.218;2023-04-29T14:06:06;5.42;;;1.98;;
43552;SDS011;29153;42.696;23.218;2023-04-29T14:11:01;5.17;;;1.92;;
43552;SDS011;29153;42.696;23.218;2023-04-29T14:13:29;4.65;;;2.22;;
43552;SDS011;29153;42.696;23.218;2023-04-29T14:15:57;5.60;;;2.20;;
43552;SDS011;29153;42.696;23.218;2023-04-29T14:18:26;3.30;;;1.72;;
43552;SDS011;29153;42.696;23.218;2023-04-29T14:20:55;8.20;;;1.40;;
43552;SDS011;29153;42.696;23.218;2023-04-29T14:23:24;4.75;;;1.60;;
43552;SDS011;29153;42.696;23.218;2023-04-29T14:25:51;2.55;;;1.50;;
43552;SDS011;29153;42.696;23.218;2023-04-29T14:28:19;5.00;;;2.00;;
43552;SDS011;29153;42.696;23.218;2023-04-29T14:30:46;3.40;;;1.80;;
43552;SDS011;29153;42.696;23.218;2023-04-29T14:33:14;2.30;;;1.10;;
43552;SDS011;29153;42.696;23.218;2023-04-29T14:35:41;7.22;;;2.40;;
43552;SDS011;29153;42.696;23.218;2023-04-29T14:38:09;6.08;;;1.85;;
43552;SDS011;29153;42.696;23.218;2023-04-29T14:40:36;5.03;;;1.95;;
43552;SDS011;29153;42.696;23.218;2023-04-29T14:43:03;3.70;;;1.87;;
43552;SDS011;29153;42.696;23.218;2023-04-29T14:45:31;7.70;;;1.55;;
43552;SDS011;29153;42.696;23.218;2023-04-29T14:47:58;7.20;;;1.98;;
43552;SDS011;29153;42.696;23.218;2023-04-29T14:50:26;6.40;;;2.25;;
43552;SDS011;29153;42.696;23.218;2023-04-29T14:52:53;5.17;;;1.90;;
43552;SDS011;29153;42.696;23.218;2023-04-29T14:55:22;6.62;;;1.85;;
43552;SDS011;29153;42.696;23.218;2023-04-29T14:57:49;17.87;;;1.80;;
43552;SDS011;29153;42.696;23.218;2023-04-29T15:00:17;4.00;;;1.32;;
43552;SDS011;29153;42.696;23.218;2023-04-29T15:02:45;4.15;;;1.80;;
43552;SDS011;29153;42.696;23.218;2023-04-29T15:05:15;3.50;;;1.75;;
43552;SDS011;29153;42.696;23.218;2023-04-29T15:07:42;5.45;;;2.35;;
43552;SDS011;29153;42.696;23.218;2023-04-29T15:10:10;6.10;;;2.15;;
43552;SDS011;29153;42.696;23.218;2023-04-29T15:12:37;3.30;;;1.87;;
43552;SDS011;29153;42.696;23.218;2023-04-29T15:15:05;8.73;;;2.83;;
43552;SDS011;29153;42.696;23.218;2023-04-29T15:17:33;3.15;;;1.98;;
43552;SDS011;29153;42.696;23.218;2023-04-29T15:20:01;3.05;;;1.92;;
43552;SDS011;29153;42.696;23.218;2023-04-29T15:22:28;5.87;;;2.12;;